Time;durP1;ratioP1;P1;durP2;ratioP2;P2;SDS_P1;SDS_P2;PMS_P1;PMS_P2;Temp;Humidity;BMP_temperature;BMP_pressure;BME280_temperature;BME280_humidity;BME280_pressure;Samples;Min_cycle;Max_cycle;Signal;HPM_P1;HPM_P2
2022/10/22 00:01:26;;;;;;;;;;;;;;;13.70;48.97;100518.53;5372589;32;851820;-81
2022/10/22 00:04:28;;;;;;;;;;;;;;;13.55;49.75;100517.53;5397753;32;33480;-78
2022/10/22 00:07:36;;;;;;;;;;;;;;;13.90;49.00;100515.75;5375497;32;36499;-81
2022/10/22 00:10:38;;;;;;;;;;;;;;;14.04;48.39;100513.28;5364621;32;34482;-81
2022/10/22 00:13:40;;;;;;;;;;;;;;;12.70;51.84;100517.16;5396041;32;43089;-79
2022/10/22 00:16:42;;;;;;;;;;;;;;;12.75;52.20;100517.78;5376355;32;35343;-77
2022/10/22 00:19:44;;;;;;;;;;;;;;;13.01;51.78;100516.59;5410010;32;34617;-76
2022/10/22 00:22:46;;;;;;;;;;;;;;;12.95;51.86;100517.72;5371171;32;33125;-77
2022/10/22 00:25:48;;;;;;;;;;;;;;;13.49;50.56;100517.81;5386123;32;36452;-80
2022/10/22 00:28:50;;;;;;;;;;;;;;;12.76;52.44;100516.88;5390560;32;35275;-80
2022/10/22 00:31:51;;;;;;;;;;;;;;;12.76;52.60;100516.88;5376596;32;35524;-78
2022/10/22 00:34:53;;;;;;;;;;;;;;;12.80;52.71;100505.25;5407493;32;35465;-81
2022/10/22 00:37:55;;;;;;;;;;;;;;;13.11;51.74;100506.44;5385152;32;34695;-80
2022/10/22 00:40:57;;;;;;;;;;;;;;;12.94;52.26;100502.81;5381225;32;36153;-80
2022/10/22 00:44:00;;;;;;;;;;;;;;;13.52;50.57;100491.25;5390196;32;35466;-77
2022/10/22 00:47:02;;;;;;;;;;;;;;;13.23;51.37;100495.34;5401208;32;34139;-79
2022/10/22 00:50:05;;;;;;;;;;;;;;;13.48;50.56;100492.34;5379515;32;37517;-80
2022/10/22 00:53:12;;;;;;;;;;;;;;;13.47;51.15;100493.28;5388904;32;34811;-76
2022/10/22 00:56:13;;;;;;;;;;;;;;;13.85;49.93;100488.72;5419351;32;44591;-81
2022/10/22 00:59:15;;;;;;;;;;;;;;;12.97;52.59;100481.56;5391341;32;35688;-77
2022/10/22 01:02:17;;;;;;;;;;;;;;;12.71;53.69;100487.22;5405283;32;34229;-77
2022/10/22 01:05:20;;;;;;;;;;;;;;;13.64;51.46;100485.38;5371715;32;37057;-81
2022/10/22 01:08:45;;;;;;;;;;;;;;;13.43;51.83;100494.37;5364076;32;36617;-77
2022/10/22 01:11:50;;;;;;;;;;;;;;;13.17;52.49;100503.50;5391383;32;44877;-77
2022/10/22 01:14:57;;;;;;;;;;;;;;;13.66;50.60;100507.28;5384236;32;36760;-81
2022/10/22 01:18:07;;;;;;;;;;;;;;;13.36;51.92;100490.31;5390008;32;35224;-77
2022/10/22 01:21:29;;;;;;;;;;;;;;;13.35;51.75;100489.47;5383923;32;34977;-80
2022/10/22 01:24:31;;;;;;;;;;;;;;;14.20;49.38;100494.81;5379220;32;34315;-77
2022/10/22 01:27:42;;;;;;;;;;;;;;;13.48;51.06;100487.94;5399498;32;34985;-77
2022/10/22 01:30:44;;;;;;;;;;;;;;;13.32;51.67;100494.87;5375188;32;45131;-81
2022/10/22 01:33:46;;;;;;;;;;;;;;;13.00;52.42;100488.47;5405057;32;34863;-77
2022/10/22 01:36:48;;;;;;;;;;;;;;;13.60;50.99;100494.41;5385357;32;35344;-80
2022/10/22 01:39:50;;;;;;;;;;;;;;;13.27;51.77;100499.56;5416225;32;35270;-77
2022/10/22 01:42:55;;;;;;;;;;;;;;;12.85;53.11;100494.47;5382611;32;35048;-77
2022/10/22 01:45:58;;;;;;;;;;;;;;;12.66;53.85;100499.75;5384665;32;35323;-78
2022/10/22 01:49:15;;;;;;;;;;;;;;;12.64;54.27;100485.78;5395936;32;34303;-77
2022/10/22 01:52:25;;;;;;;;;;;;;;;12.87;53.58;100475.00;5397360;32;46411;-76
2022/10/22 01:55:35;;;;;;;;;;;;;;;12.77;54.16;100476.38;5377356;32;34856;-76
2022/10/22 01:58:55;;;;;;;;;;;;;;;13.34;52.64;100464.00;5376205;32;34632;-77
2022/10/22 02:02:03;;;;;;;;;;;;;;;13.18;53.15;100457.72;5399389;32;35643;-77
2022/10/22 02:05:07;;;;;;;;;;;;;;;13.48;52.37;100464.16;5382410;32;36466;-80
2022/10/22 02:08:17;;;;;;;;;;;;;;;13.31;52.56;100463.28;5352913;32;33198;-76
2022/10/22 02:11:19;;;;;;;;;;;;;;;13.28;52.57;100464.31;5375152;32;44880;-77
2022/10/22 02:14:21;;;;;;;;;;;;;;;13.64;51.48;100468.66;5378798;32;34993;-77
2022/10/22 02:17:22;;;;;;;;;;;;;;;13.35;52.54;100468.34;5388463;32;35176;-77
2022/10/22 02:20:26;;;;;;;;;;;;;;;13.34;52.28;100461.38;5384163;32;34237;-77
2022/10/22 02:23:28;;;;;;;;;;;;;;;13.28;52.65;100467.78;5385065;32;36185;-79
2022/10/22 02:26:38;;;;;;;;;;;;;;;13.68;51.92;100476.38;5415843;32;33992;-81
2022/10/22 02:29:42;;;;;;;;;;;;;;;14.21;50.67;100475.38;5394201;32;44198;-80
2022/10/22 02:32:55;;;;;;;;;;;;;;;14.37;50.33;100478.09;5411676;32;34802;-77
2022/10/22 02:35:57;;;;;;;;;;;;;;;14.73;49.17;100479.69;5398595;32;34979;-81
2022/10/22 02:38:59;;;;;;;;;;;;;;;13.44;52.28;100481.06;5369860;32;34806;-78
2022/10/22 02:42:01;;;;;;;;;;;;;;;12.88;54.34;100476.75;5386475;32;35542;-77
2022/10/22 02:45:03;;;;;;;;;;;;;;;12.61;54.73;100470.94;5367172;32;35688;-77
2022/10/22 02:48:05;;;;;;;;;;;;;;;13.33;52.82;100475.50;5400832;32;34789;-81
2022/10/22 02:51:07;;;;;;;;;;;;;;;12.78;54.78;100474.59;5398846;32;35347;-81
2022/10/22 02:54:09;;;;;;;;;;;;;;;12.73;54.53;100478.28;5400240;32;36709;-82
2022/10/22 02:57:11;;;;;;;;;;;;;;;12.97;53.97;100478.94;5371533;32;44941;-78
2022/10/22 03:00:13;;;;;;;;;;;;;;;13.61;52.80;100484.69;5379917;32;36326;-77
2022/10/22 03:03:15;;;;;;;;;;;;;;;14.15;50.90;100482.78;5396952;32;35625;-80
2022/10/22 03:06:17;;;;;;;;;;;;;;;13.86;51.66;100490.44;5378353;32;36267;-79
2022/10/22 03:09:19;;;;;;;;;;;;;;;13.62;52.22;100492.53;5386295;32;34712;-80
2022/10/22 03:12:25;;;;;;;;;;;;;;;13.54;53.01;100498.19;5399911;32;34263;-80
2022/10/22 03:15:27;;;;;;;;;;;;;;;13.41;53.25;100494.44;5391991;32;35028;-80
2022/10/22 03:18:34;;;;;;;;;;;;;;;12.99;54.62;100490.25;5378177;32;35106;-80
2022/10/22 03:21:38;;;;;;;;;;;;;;;12.21;57.32;100490.34;5382080;32;34610;-76
2022/10/22 03:24:41;;;;;;;;;;;;;;;12.20;57.40;100480.75;5394949;32;43564;-81
2022/10/22 03:27:43;;;;;;;;;;;;;;;12.39;57.31;100481.63;5379101;32;34140;-79
2022/10/22 03:30:45;;;;;;;;;;;;;;;12.13;57.90;100479.31;5389257;32;35112;-80
2022/10/22 03:33:47;;;;;;;;;;;;;;;12.14;58.19;100483.63;5383295;32;34518;-77
2022/10/22 03:36:49;;;;;;;;;;;;;;;12.95;55.32;100469.41;5388671;32;34908;-80
2022/10/22 03:39:51;;;;;;;;;;;;;;;12.19;57.94;100471.97;5406059;32;35139;-81
2022/10/22 03:42:53;;;;;;;;;;;;;;;11.99;58.90;100450.09;5386311;32;34308;-77
2022/10/22 03:45:54;;;;;;;;;;;;;;;12.52;57.12;100434.47;5401132;32;34590;-82
2022/10/22 03:48:56;;;;;;;;;;;;;;;12.22;57.63;100441.13;5386352;32;35292;-81
2022/10/22 03:52:04;;;;;;;;;;;;;;;11.82;58.90;100427.09;5395985;32;34630;-79
2022/10/22 03:55:06;;;;;;;;;;;;;;;12.30;57.11;100421.44;5372900;32;34092;-82
2022/10/22 03:58:08;;;;;;;;;;;;;;;13.25;54.65;100424.84;5386954;32;35145;-77
2022/10/22 04:01:10;;;;;;;;;;;;;;;13.53;53.44;100446.31;5382046;32;36377;-76
2022/10/22 04:04:12;;;;;;;;;;;;;;;12.84;55.33;100446.16;5378638;32;34640;-77
2022/10/22 04:07:14;;;;;;;;;;;;;;;13.24;54.43;100445.09;5402621;32;35347;-77
2022/10/22 04:10:16;;;;;;;;;;;;;;;13.30;54.18;100459.78;5352860;32;36393;-81
2022/10/22 04:13:18;;;;;;;;;;;;;;;13.60;53.09;100467.13;5395829;32;35409;-79
2022/10/22 04:16:20;;;;;;;;;;;;;;;12.64;55.81;100460.28;5385976;32;34646;-77
2022/10/22 04:19:24;;;;;;;;;;;;;;;11.80;59.02;100466.63;5395705;32;34041;-79
2022/10/22 04:22:26;;;;;;;;;;;;;;;12.30;58.17;100453.06;5400829;32;35341;-77
2022/10/22 04:25:28;;;;;;;;;;;;;;;12.16;57.89;100458.06;5379490;32;34170;-77
2022/10/22 04:28:30;;;;;;;;;;;;;;;13.17;55.33;100454.22;5389610;32;34257;-81
2022/10/22 04:31:32;;;;;;;;;;;;;;;13.13;54.96;100455.28;5399396;32;34110;-78
2022/10/22 04:34:34;;;;;;;;;;;;;;;13.05;55.18;100464.53;5385506;32;34931;-76
2022/10/22 04:37:36;;;;;;;;;;;;;;;12.79;55.80;100447.28;5374987;32;35191;-80
2022/10/22 04:40:38;;;;;;;;;;;;;;;13.38;54.02;100456.78;5382559;32;35282;-77
2022/10/22 04:43:40;;;;;;;;;;;;;;;13.14;54.86;100451.75;5398962;32;43349;-76
2022/10/22 04:46:42;;;;;;;;;;;;;;;11.72;59.02;100446.81;5364380;32;35304;-76
2022/10/22 04:49:44;;;;;;;;;;;;;;;12.98;55.75;100458.69;5394730;32;34524;-80
2022/10/22 04:52:46;;;;;;;;;;;;;;;12.97;55.27;100449.06;5379437;32;35011;-79
2022/10/22 04:55:48;;;;;;;;;;;;;;;12.21;57.78;100453.47;5385106;32;34901;-80
2022/10/22 04:58:52;;;;;;;;;;;;;;;12.57;57.04;100440.41;5386116;32;37033;-81
2022/10/22 05:01:54;;;;;;;;;;;;;;;13.10;55.61;100451.97;5380999;32;34784;-80
2022/10/22 05:04:55;;;;;;;;;;;;;;;13.43;54.44;100449.47;5407619;32;35834;-79
2022/10/22 05:07:57;;;;;;;;;;;;;;;11.96;58.57;100440.50;5371887;32;34314;-78
2022/10/22 05:10:59;;;;;;;;;;;;;;;12.36;57.55;100441.34;5383258;32;35723;-76
2022/10/22 05:14:03;;;;;;;;;;;;;;;13.22;54.88;100444.34;5377605;32;34153;-81
2022/10/22 05:17:05;;;;;;;;;;;;;;;13.39;54.38;100459.31;5396762;32;34355;-81
2022/10/22 05:20:07;;;;;;;;;;;;;;;13.23;54.79;100442.56;5374260;32;36627;-80
2022/10/22 05:23:09;;;;;;;;;;;;;;;12.79;55.43;100437.59;5379702;32;35541;-81
2022/10/22 05:26:11;;;;;;;;;;;;;;;12.93;55.70;100448.34;5392700;32;44549;-80
2022/10/22 05:29:13;;;;;;;;;;;;;;;13.49;54.14;100459.75;5386571;32;35676;-80
2022/10/22 05:32:15;;;;;;;;;;;;;;;12.89;55.52;100449.44;5399080;32;34116;-77
2022/10/22 05:35:17;;;;;;;;;;;;;;;12.95;55.82;100456.22;5379260;32;35375;-81
2022/10/22 05:38:19;;;;;;;;;;;;;;;13.28;54.80;100456.38;5398197;32;36139;-77
2022/10/22 05:41:22;;;;;;;;;;;;;;;13.25;54.97;100460.00;5381026;32;34140;-81
2022/10/22 05:44:23;;;;;;;;;;;;;;;12.96;55.58;100465.81;5377980;32;35284;-78
2022/10/22 05:47:27;;;;;;;;;;;;;;;13.27;54.82;100452.88;5414006;32;35576;-77
2022/10/22 05:50:29;;;;;;;;;;;;;;;12.74;56.70;100447.50;5373178;32;34242;-79
2022/10/22 05:53:31;;;;;;;;;;;;;;;13.22;55.25;100454.03;5400056;32;35315;-80
2022/10/22 05:56:34;;;;;;;;;;;;;;;13.32;54.52;100468.47;5382460;32;36572;-76
2022/10/22 05:59:35;;;;;;;;;;;;;;;13.13;55.28;100452.66;5407271;32;34919;-80
2022/10/22 06:02:37;;;;;;;;;;;;;;;13.88;53.21;100469.22;5398176;32;36383;-81
2022/10/22 06:05:40;;;;;;;;;;;;;;;13.47;53.16;100467.75;5378442;32;43138;-79
2022/10/22 06:08:42;;;;;;;;;;;;;;;12.87;55.73;100476.78;5377753;32;35233;-77
2022/10/22 06:11:44;;;;;;;;;;;;;;;12.28;57.79;100486.50;5376191;32;34703;-77
2022/10/22 06:14:46;;;;;;;;;;;;;;;13.26;55.27;100487.25;5406387;32;34863;-77
2022/10/22 06:17:48;;;;;;;;;;;;;;;13.53;54.22;100485.91;5380374;32;34733;-81
2022/10/22 06:20:50;;;;;;;;;;;;;;;14.32;51.88;100496.84;5378076;32;36364;-81
2022/10/22 06:23:54;;;;;;;;;;;;;;;12.71;55.35;100503.03;5380467;32;35619;-81
2022/10/22 06:26:56;;;;;;;;;;;;;;;13.06;55.21;100498.75;5381760;32;36265;-77
2022/10/22 06:29:58;;;;;;;;;;;;;;;12.65;56.51;100487.50;5405592;32;33976;-78
2022/10/22 06:32:59;;;;;;;;;;;;;;;12.78;56.10;100496.56;5388915;32;34905;-77
2022/10/22 06:36:05;;;;;;;;;;;;;;;12.96;55.50;100492.22;5397016;32;34261;-80
2022/10/22 06:39:10;;;;;;;;;;;;;;;14.08;53.07;100491.03;5378425;32;35187;-80
2022/10/22 06:42:11;;;;;;;;;;;;;;;15.08;49.73;100478.59;5381603;32;45126;-77
2022/10/22 06:45:13;;;;;;;;;;;;;;;15.36;49.10;100493.78;5377098;32;35116;-81
2022/10/22 06:48:15;;;;;;;;;;;;;;;14.38;50.90;100498.28;5382246;32;34338;-81
2022/10/22 06:51:17;;;;;;;;;;;;;;;14.94;49.10;100502.34;5414450;32;35076;-77
2022/10/22 06:54:20;;;;;;;;;;;;;;;15.93;47.20;100520.50;5391655;32;34562;-80
2022/10/22 06:57:22;;;;;;;;;;;;;;;15.05;48.76;100515.81;5410209;32;34799;-77
2022/10/22 07:00:24;;;;;;;;;;;;;;;14.14;51.49;100516.28;5373316;32;33605;-81
2022/10/22 07:03:26;;;;;;;;;;;;;;;15.06;49.04;100506.94;5394137;32;34176;-81
2022/10/22 07:06:28;;;;;;;;;;;;;;;14.65;49.37;100492.50;5385075;32;36634;-79
2022/10/22 07:09:30;;;;;;;;;;;;;;;14.95;49.25;100493.47;5350766;32;34285;-80
2022/10/22 07:12:32;;;;;;;;;;;;;;;14.96;49.43;100495.16;5394753;32;34199;-80
2022/10/22 07:15:34;;;;;;;;;;;;;;;14.83;49.07;100496.78;5378977;32;35867;-80
2022/10/22 07:18:37;;;;;;;;;;;;;;;15.80;46.40;100497.47;5394063;32;34681;-80
2022/10/22 07:21:39;;;;;;;;;;;;;;;15.37;47.66;100489.31;5378577;32;35624;-77
2022/10/22 07:24:41;;;;;;;;;;;;;;;15.00;48.16;100491.41;5402158;32;44412;-80
2022/10/22 07:27:42;;;;;;;;;;;;;;;14.03;50.47;100497.47;5406502;32;35689;-78
2022/10/22 07:30:44;;;;;;;;;;;;;;;14.17;50.51;100499.41;5386131;32;34908;-80
2022/10/22 07:33:46;;;;;;;;;;;;;;;15.61;46.29;100495.00;5385060;32;34341;-80
2022/10/22 07:36:48;;;;;;;;;;;;;;;14.56;49.02;100497.34;5379137;32;34728;-77
2022/10/22 07:39:50;;;;;;;;;;;;;;;14.55;49.42;100490.31;5404304;32;34982;-77
2022/10/22 07:42:52;;;;;;;;;;;;;;;13.49;52.55;100492.28;5390992;32;34997;-80
2022/10/22 07:45:54;;;;;;;;;;;;;;;15.03;48.49;100483.31;5392029;32;35283;-77
2022/10/22 07:48:56;;;;;;;;;;;;;;;14.42;49.45;100491.88;5380124;32;35546;-77
2022/10/22 07:51:59;;;;;;;;;;;;;;;15.11;47.88;100481.06;5379234;32;34250;-80
2022/10/22 07:55:00;;;;;;;;;;;;;;;14.57;48.70;100488.47;5393032;32;34152;-81
2022/10/22 07:58:03;;;;;;;;;;;;;;;13.70;50.62;100489.50;5385787;32;34248;-78
2022/10/22 08:01:05;;;;;;;;;;;;;;;15.48;45.96;100488.72;5394708;32;36803;-81
2022/10/22 08:04:08;;;;;;;;;;;;;;;14.89;46.42;100507.87;5374585;32;33796;-81
2022/10/22 08:07:10;;;;;;;;;;;;;;;13.71;49.80;100502.63;5385430;32;44614;-78
2022/10/22 08:10:12;;;;;;;;;;;;;;;15.03;46.27;100495.69;5358003;32;35418;-80
2022/10/22 08:13:14;;;;;;;;;;;;;;;15.14;46.49;100488.00;5382399;32;35217;-78
2022/10/22 08:16:16;;;;;;;;;;;;;;;13.87;50.28;100489.50;5394485;32;36426;-77
2022/10/22 08:19:20;;;;;;;;;;;;;;;15.44;46.23;100488.03;5377688;32;34888;-77
2022/10/22 08:22:21;;;;;;;;;;;;;;;14.56;49.09;100507.94;5394606;32;34810;-82
2022/10/22 08:25:24;;;;;;;;;;;;;;;14.60;48.74;100483.00;5384226;32;34934;-78
2022/10/22 08:28:27;;;;;;;;;;;;;;;15.87;45.65;100480.25;5380573;32;34350;-79
2022/10/22 08:31:29;;;;;;;;;;;;;;;14.70;47.78;100491.31;5388620;32;35608;-82
2022/10/22 08:34:31;;;;;;;;;;;;;;;15.32;46.65;100488.72;5374949;32;34499;-78
2022/10/22 08:37:33;;;;;;;;;;;;;;;16.04;44.44;100496.03;5396161;32;36695;-77
2022/10/22 08:40:37;;;;;;;;;;;;;;;16.06;44.66;100486.16;5379775;32;36493;-77
2022/10/22 08:43:45;;;;;;;;;;;;;;;17.36;41.92;100477.13;5400627;32;35623;-78
2022/10/22 08:46:49;;;;;;;;;;;;;;;17.13;42.38;100486.59;5398251;32;44641;-78
2022/10/22 08:49:51;;;;;;;;;;;;;;;17.30;41.92;100494.31;5380068;32;34735;-82
2022/10/22 08:52:54;;;;;;;;;;;;;;;16.04;44.34;100493.38;5394593;32;34171;-79
2022/10/22 08:55:56;;;;;;;;;;;;;;;17.08;41.87;100492.22;5371847;32;35739;-81
2022/10/22 08:58:58;;;;;;;;;;;;;;;17.18;42.01;100484.50;5399976;32;34374;-80
2022/10/22 09:02:00;;;;;;;;;;;;;;;16.43;43.54;100494.53;5380587;32;35350;-77
2022/10/22 09:05:11;;;;;;;;;;;;;;;15.94;44.81;100494.84;5392150;32;35858;-78
2022/10/22 09:08:14;;;;;;;;;;;;;;;16.07;44.76;100494.97;5366477;32;43245;-77
2022/10/22 09:11:16;;;;;;;;;;;;;;;16.83;43.22;100481.47;5357925;32;34842;-77
2022/10/22 09:14:20;;;;;;;;;;;;;;;17.61;41.12;100490.50;5405986;32;35716;-78
2022/10/22 09:17:48;;;;;;;;;;;;;;;16.97;42.61;100492.06;5370592;32;35486;-82
2022/10/22 09:21:02;;;;;;;;;;;;;;;17.20;42.10;100502.06;5378647;32;34958;-77
2022/10/22 09:24:04;;;;;;;;;;;;;;;18.12;39.97;100491.47;5372350;32;34927;-81
2022/10/22 09:27:10;;;;;;;;;;;;;;;16.83;42.40;100492.09;5384433;32;35011;-81
2022/10/22 09:30:20;;;;;;;;;;;;;;;15.98;44.83;100488.44;5389269;32;45786;-81
2022/10/22 09:33:26;;;;;;;;;;;;;;;16.48;44.08;100485.31;5383197;32;34499;-81
2022/10/22 09:36:28;;;;;;;;;;;;;;;16.76;43.37;100489.81;5406332;32;34254;-77
2022/10/22 09:39:31;;;;;;;;;;;;;;;16.82;43.48;100498.34;5393359;32;34097;-80
2022/10/22 09:42:33;;;;;;;;;;;;;;;17.11;43.19;100504.44;5403359;32;34936;-80
2022/10/22 09:45:35;;;;;;;;;;;;;;;16.58;43.67;100514.81;5369761;32;36062;-81
2022/10/22 09:48:41;;;;;;;;;;;;;;;16.28;44.71;100503.41;5383541;32;35957;-80
2022/10/22 09:51:49;;;;;;;;;;;;;;;15.75;46.31;100496.88;5395171;32;42695;-80
2022/10/22 09:54:51;;;;;;;;;;;;;;;16.63;44.43;100510.06;5372231;32;35288;-80
2022/10/22 09:57:54;;;;;;;;;;;;;;;16.22;45.29;100500.19;5387320;32;34745;-81
2022/10/22 10:00:57;;;;;;;;;;;;;;;16.25;45.38;100485.91;5373737;32;34353;-81
2022/10/22 10:04:09;;;;;;;;;;;;;;;16.57;44.77;100489.22;5375136;32;35054;-76
2022/10/22 10:07:16;;;;;;;;;;;;;;;17.40;42.61;100489.28;5410923;32;44462;-81
2022/10/22 10:10:20;;;;;;;;;;;;;;;16.81;43.65;100486.00;5352612;32;35017;-77
2022/10/22 10:13:34;;;;;;;;;;;;;;;18.04;41.11;100487.66;5396691;32;35659;-79
2022/10/22 10:16:55;;;;;;;;;;;;;;;17.83;41.32;100487.28;5385636;32;34558;-78
2022/10/22 10:19:56;;;;;;;;;;;;;;;17.95;41.43;100477.63;5379243;32;35530;-78
2022/10/22 10:23:23;;;;;;;;;;;;;;;17.24;42.74;100471.66;5396146;32;35479;-78
2022/10/22 10:26:32;;;;;;;;;;;;;;;17.54;42.81;100465.28;5381032;32;35194;-79
2022/10/22 10:29:52;;;;;;;;;;;;;;;17.65;42.72;100473.41;5396899;32;36274;-76
2022/10/22 10:33:21;;;;;;;;;;;;;;;18.00;42.01;100478.16;5390815;32;34908;-77
2022/10/22 10:36:26;;;;;;;;;;;;;;;17.91;42.15;100473.50;5363817;32;35843;-78
2022/10/22 10:39:34;;;;;;;;;;;;;;;17.45;42.98;100472.09;5393361;32;34131;-81
2022/10/22 10:42:39;;;;;;;;;;;;;;;18.34;41.05;100474.00;5384928;32;34951;-77
2022/10/22 10:45:45;;;;;;;;;;;;;;;18.60;40.53;100467.69;5385228;32;44629;-76
2022/10/22 10:48:49;;;;;;;;;;;;;;;17.82;42.42;100473.12;5383976;32;35273;-78
2022/10/22 10:52:10;;;;;;;;;;;;;;;16.81;44.40;100478.03;5365564;32;36300;-77
2022/10/22 10:55:14;;;;;;;;;;;;;;;18.06;41.95;100475.09;5401746;32;44582;-76
2022/10/22 10:58:30;;;;;;;;;;;;;;;17.53;43.42;100484.84;5375096;32;35040;-81
2022/10/22 11:01:44;;;;;;;;;;;;;;;18.22;41.74;100489.00;5415324;32;35733;-77
2022/10/22 11:05:12;;;;;;;;;;;;;;;18.75;40.94;100489.75;5383529;32;44451;-82
2022/10/22 11:08:16;;;;;;;;;;;;;;;17.94;42.66;100502.50;5339831;32;44551;-79
2022/10/22 11:11:27;;;;;;;;;;;;;;;18.60;41.55;100488.13;5388570;32;34828;-77
2022/10/22 11:14:32;;;;;;;;;;;;;;;19.56;39.80;100482.94;5392206;32;34429;-80
2022/10/22 11:17:41;;;;;;;;;;;;;;;19.79;39.11;100476.78;5411316;32;35495;-80
2022/10/22 11:21:02;;;;;;;;;;;;;;;19.41;40.02;100483.12;5380797;32;45112;-80
2022/10/22 11:24:23;;;;;;;;;;;;;;;18.14;42.71;100480.72;5370057;32;35821;-77
2022/10/22 11:27:36;;;;;;;;;;;;;;;19.28;40.45;100468.19;5390386;32;34631;-77
2022/10/22 11:30:38;;;;;;;;;;;;;;;18.67;42.05;100465.47;5379041;32;35769;-80
2022/10/22 11:34:00;;;;;;;;;;;;;;;18.12;43.24;100458.69;5396661;32;44680;-78
2022/10/22 11:37:16;;;;;;;;;;;;;;;18.46;42.91;100456.34;5387533;32;44681;-78
2022/10/22 11:40:19;;;;;;;;;;;;;;;18.65;42.29;100449.59;5364842;32;34880;-78
2022/10/22 11:43:44;;;;;;;;;;;;;;;18.84;41.58;100443.81;5391302;32;34396;-81
2022/10/22 11:46:56;;;;;;;;;;;;;;;18.27;43.52;100444.31;5365252;32;45287;-77
2022/10/22 11:50:16;;;;;;;;;;;;;;;18.33;43.22;100443.03;5367955;32;34824;-76
2022/10/22 11:53:24;;;;;;;;;;;;;;;18.16;43.85;100433.56;5387388;32;44574;-78
2022/10/22 11:56:27;;;;;;;;;;;;;;;18.56;43.25;100428.97;5398404;32;35137;-77
2022/10/22 11:59:51;;;;;;;;;;;;;;;20.07;39.88;100423.97;5397133;32;34106;-81
2022/10/22 12:03:01;;;;;;;;;;;;;;;19.84;40.56;100429.28;5364594;32;35586;-77
2022/10/22 12:06:03;;;;;;;;;;;;;;;19.88;41.78;100430.72;5370157;32;35189;-79
2022/10/22 12:09:06;;;;;;;;;;;;;;;18.65;44.56;100438.94;5380000;32;34617;-77
2022/10/22 12:12:14;;;;;;;;;;;;;;;19.12;43.59;100434.66;5398709;32;34789;-81
2022/10/22 12:15:20;;;;;;;;;;;;;;;19.10;43.66;100423.28;5398829;32;44075;-81
2022/10/22 12:18:23;;;;;;;;;;;;;;;18.99;44.40;100419.69;5375298;32;34116;-80
2022/10/22 12:21:25;;;;;;;;;;;;;;;18.12;45.35;100432.09;5404867;32;34523;-80
2022/10/22 12:24:31;;;;;;;;;;;;;;;17.53;46.61;100429.06;5382448;32;35066;-79
2022/10/22 12:27:33;;;;;;;;;;;;;;;17.68;46.50;100425.34;5394981;32;33876;-78
2022/10/22 12:30:35;;;;;;;;;;;;;;;19.56;42.16;100400.31;5399304;32;33760;-80
2022/10/22 12:33:37;;;;;;;;;;;;;;;19.43;42.12;100398.56;5379442;32;34807;-77
2022/10/22 12:36:39;;;;;;;;;;;;;;;19.08;43.56;100398.56;5402540;32;35214;-78
2022/10/22 12:39:41;;;;;;;;;;;;;;;18.91;43.59;100397.13;5382189;32;44478;-80
2022/10/22 12:42:47;;;;;;;;;;;;;;;19.25;43.50;100407.94;5384339;32;33560;-79
2022/10/22 12:45:49;;;;;;;;;;;;;;;18.53;45.27;100402.56;5378506;32;34888;-76
2022/10/22 12:48:51;;;;;;;;;;;;;;;18.76;44.80;100405.41;5382387;32;34419;-77
2022/10/22 12:51:53;;;;;;;;;;;;;;;19.90;41.74;100412.81;5380131;32;34638;-76
2022/10/22 12:54:55;;;;;;;;;;;;;;;19.49;42.65;100422.09;5379233;32;34462;-77
2022/10/22 12:57:57;;;;;;;;;;;;;;;19.25;43.77;100423.94;5388940;32;34222;-81
2022/10/22 13:01:02;;;;;;;;;;;;;;;18.09;45.72;100429.66;5388741;32;34799;-78
2022/10/22 13:04:06;;;;;;;;;;;;;;;18.35;45.49;100415.38;5390416;32;35012;-77
2022/10/22 13:07:11;;;;;;;;;;;;;;;19.18;43.17;100415.56;5389468;32;34904;-83
2022/10/22 13:10:20;;;;;;;;;;;;;;;19.37;43.48;100419.50;5350536;32;46002;-81
2022/10/22 13:13:29;;;;;;;;;;;;;;;19.20;43.37;100428.78;5390800;32;35646;-80
2022/10/22 13:16:32;;;;;;;;;;;;;;;18.16;44.87;100422.09;5390942;32;34226;-76
2022/10/22 13:19:46;;;;;;;;;;;;;;;17.54;46.57;100423.63;5394130;32;36216;-81
2022/10/22 13:22:52;;;;;;;;;;;;;;;18.58;44.36;100412.88;5377556;32;44877;-81
2022/10/22 13:25:58;;;;;;;;;;;;;;;18.74;43.48;100416.19;5396759;32;34417;-77
2022/10/22 13:29:00;;;;;;;;;;;;;;;18.65;43.41;100424.78;5402419;32;34320;-76
2022/10/22 13:32:02;;;;;;;;;;;;;;;18.96;43.44;100430.59;5381267;32;35369;-81
2022/10/22 13:35:04;;;;;;;;;;;;;;;18.32;44.29;100423.56;5378058;32;34388;-81
2022/10/22 13:38:14;;;;;;;;;;;;;;;18.07;45.09;100420.94;5379813;32;35191;-77
2022/10/22 13:41:20;;;;;;;;;;;;;;;17.62;46.04;100412.47;5381007;32;44670;-82
2022/10/22 13:44:22;;;;;;;;;;;;;;;17.77;45.84;100418.56;5393244;32;35420;-82
2022/10/22 13:47:27;;;;;;;;;;;;;;;17.86;45.27;100428.59;5384219;32;34896;-82
2022/10/22 13:50:29;;;;;;;;;;;;;;;18.55;43.94;100423.75;5388373;32;34254;-76
2022/10/22 13:53:31;;;;;;;;;;;;;;;17.67;46.16;100439.59;5376454;32;34237;-76
2022/10/22 13:56:33;;;;;;;;;;;;;;;17.03;47.40;100438.56;5393815;32;35421;-77
2022/10/22 13:59:35;;;;;;;;;;;;;;;16.88;48.15;100431.59;5393874;32;35466;-81
2022/10/22 14:02:37;;;;;;;;;;;;;;;18.02;45.57;100437.19;5390190;32;36004;-77
2022/10/22 14:05:40;;;;;;;;;;;;;;;18.76;44.18;100432.88;5396609;32;44971;-81
2022/10/22 14:08:42;;;;;;;;;;;;;;;18.45;44.20;100430.69;5358007;32;34779;-77
2022/10/22 14:11:44;;;;;;;;;;;;;;;18.37;45.00;100426.75;5391473;32;35473;-81
2022/10/22 14:14:46;;;;;;;;;;;;;;;18.07;45.34;100437.75;5377176;32;35380;-81
2022/10/22 14:17:51;;;;;;;;;;;;;;;18.09;45.64;100438.47;5392381;32;34164;-80
2022/10/22 14:20:57;;;;;;;;;;;;;;;17.41;46.81;100435.19;5396673;32;34662;-77
2022/10/22 14:23:59;;;;;;;;;;;;;;;18.36;45.10;100448.16;5379142;32;34493;-78
2022/10/22 14:27:01;;;;;;;;;;;;;;;17.70;46.11;100447.34;5394222;32;34425;-81
2022/10/22 14:30:03;;;;;;;;;;;;;;;17.99;45.70;100439.25;5377902;32;34289;-78
2022/10/22 14:33:16;;;;;;;;;;;;;;;17.46;46.92;100441.03;5397367;32;35074;-77
2022/10/22 14:36:18;;;;;;;;;;;;;;;17.76;46.45;100428.34;5375760;32;44393;-81
2022/10/22 14:39:20;;;;;;;;;;;;;;;17.99;46.09;100424.13;5386761;32;35020;-81
2022/10/22 14:42:22;;;;;;;;;;;;;;;17.67;46.94;100428.97;5388973;32;34753;-78
2022/10/22 14:45:25;;;;;;;;;;;;;;;17.76;46.99;100439.00;5371610;32;34933;-80
2022/10/22 14:48:26;;;;;;;;;;;;;;;17.84;47.06;100428.72;5381168;32;34782;-78
2022/10/22 14:51:28;;;;;;;;;;;;;;;18.21;46.22;100439.44;5380401;32;34310;-76
2022/10/22 14:54:32;;;;;;;;;;;;;;;18.83;45.12;100435.94;5394829;32;34223;-78
2022/10/22 14:57:33;;;;;;;;;;;;;;;18.10;46.85;100442.84;5375061;32;34455;-77
2022/10/22 15:00:35;;;;;;;;;;;;;;;17.52;48.17;100438.81;5391563;32;35704;-81
2022/10/22 15:03:37;;;;;;;;;;;;;;;17.30;48.88;100447.34;5391829;32;35961;-81
2022/10/22 15:06:39;;;;;;;;;;;;;;;17.20;49.56;100451.59;5388592;32;35189;-77
2022/10/22 15:09:41;;;;;;;;;;;;;;;16.97;50.47;100446.91;5347590;32;45358;-80
2022/10/22 15:12:43;;;;;;;;;;;;;;;16.34;52.49;100444.69;5381167;32;34298;-77
2022/10/22 15:15:45;;;;;;;;;;;;;;;16.92;51.09;100433.94;5394460;32;34726;-80
2022/10/22 15:18:47;;;;;;;;;;;;;;;17.35;50.38;100443.56;5377960;32;35343;-77
2022/10/22 15:21:49;;;;;;;;;;;;;;;17.25;50.78;100449.47;5390458;32;35690;-81
2022/10/22 15:24:52;;;;;;;;;;;;;;;17.06;51.77;100443.66;5391286;32;34869;-76
2022/10/22 15:27:54;;;;;;;;;;;;;;;16.99;52.32;100447.66;5385391;32;34408;-80
2022/10/22 15:31:05;;;;;;;;;;;;;;;16.48;54.02;100455.28;5396257;32;34189;-77
2022/10/22 15:34:07;;;;;;;;;;;;;;;17.24;52.49;100449.56;5372442;32;35210;-81
2022/10/22 15:37:10;;;;;;;;;;;;;;;17.24;52.59;100447.75;5403638;32;34760;-80
2022/10/22 15:40:12;;;;;;;;;;;;;;;17.33;52.19;100446.31;5374410;32;46257;-79
2022/10/22 15:43:14;;;;;;;;;;;;;;;15.98;56.67;100453.97;5384925;32;34908;-77
2022/10/22 15:46:16;;;;;;;;;;;;;;;16.37;55.90;100461.28;5395377;32;34257;-77